createdAt,value
2018-09-18T00:00:01.286Z,29.7
2018-09-18T00:05:01.280Z,29.4
2018-09-18T00:15:01.234Z,28.4
2018-09-18T00:20:01.235Z,27.6
2018-09-18T00:25:01.235Z,27.0
2018-09-18T00:30:01.235Z,26.4
2018-09-18T00:35:01.299Z,25.2
2018-09-18T00:40:01.240Z,25.2
2018-09-18T00:45:01.268Z,24.6
2018-09-18T00:50:01.240Z,25.0
2018-09-18T00:55:01.243Z,25.8
2018-09-18T01:01:01.264Z,26.8
2018-09-18T01:06:01.267Z,26.3
2018-09-18T01:11:06.246Z,26.9
2018-09-18T01:16:06.241Z,26.9
2018-09-18T01:21:06.244Z,26.1
2018-09-18T01:26:01.286Z,25.4
2018-09-18T01:31:06.244Z,25.5
2018-09-18T01:36:01.273Z,26.9
2018-09-18T01:41:06.250Z,26.9
2018-09-18T01:47:01.232Z,27.8
2018-09-18T01:52:01.232Z,28.2
2018-09-18T01:57:01.231Z,27.8
2018-09-18T02:02:01.326Z,26.9
2018-09-18T02:07:01.256Z,26.4
2018-09-18T02:12:01.263Z,25.2
2018-09-18T02:17:06.307Z,24.4
2018-09-18T02:22:01.278Z,23.9
2018-09-18T02:27:01.263Z,23.6
2018-09-18T02:43:01.233Z,23.8
2018-09-18T02:48:01.265Z,24.1
2018-09-18T02:53:06.238Z,23.1
2018-09-18T02:58:01.307Z,23.0
2018-09-18T03:03:01.281Z,23.7
2018-09-18T03:08:01.280Z,23.8
2018-09-18T03:13:01.267Z,24.4
2018-09-18T03:18:01.288Z,25.5
2018-09-18T03:23:01.274Z,26.4
2018-09-18T03:33:01.242Z,26.6
2018-09-18T03:38:01.245Z,27.0
2018-09-18T03:43:01.438Z,26.8
2018-09-18T03:53:01.235Z,26.0
2018-09-18T03:58:06.232Z,25.3
2018-09-18T04:03:06.301Z,25.5
2018-09-18T04:08:06.234Z,26.1
2018-09-18T04:18:06.245Z,27.3
2018-09-18T04:23:06.257Z,28.5
2018-09-18T04:28:01.242Z,28.4
2018-09-18T04:33:01.228Z,29.0
2018-09-18T04:38:01.367Z,29.0
2018-09-18T04:43:01.232Z,28.3
2018-09-18T04:48:01.234Z,28.2
2018-09-18T04:53:01.238Z,29.0
2018-09-18T04:58:01.285Z,28.1
2018-09-18T05:03:01.248Z,28.0
2018-09-18T05:08:01.251Z,28.1
2018-09-18T05:13:01.428Z,27.9
2018-09-18T05:18:01.230Z,26.9
2018-09-18T05:28:01.236Z,26.5
2018-09-18T05:33:01.232Z,26.6
2018-09-18T05:38:01.301Z,25.8
2018-09-18T05:43:01.239Z,25.8
2018-09-18T05:48:01.393Z,26.2
2018-09-18T05:53:01.243Z,26.8
2018-09-18T05:58:01.245Z,26.6
2018-09-18T06:04:01.240Z,27.2
2018-09-18T06:09:01.238Z,26.0
2018-09-18T06:14:01.236Z,25.4
2018-09-18T06:19:01.350Z,24.6
2018-09-18T06:24:01.242Z,24.7
2018-09-18T06:29:01.248Z,24.8
2018-09-18T06:34:01.342Z,25.2
2018-09-18T06:39:01.234Z,25.3
2018-09-18T06:44:01.233Z,25.6
2018-09-18T06:49:01.642Z,25.2
2018-09-18T06:54:01.242Z,24.6
2018-09-18T06:59:01.245Z,25.1
2018-09-18T07:04:01.238Z,24.9
2018-09-18T07:14:01.242Z,25.0
2018-09-18T07:19:01.240Z,25.1
2018-09-18T07:24:01.246Z,24.5
2018-09-18T07:29:01.253Z,24.5
2018-09-18T07:34:01.229Z,24.6
2018-09-18T07:39:01.233Z,24.5
2018-09-18T07:49:01.235Z,24.8
2018-09-18T07:54:01.235Z,24.4
2018-09-18T07:59:01.254Z,24.0
2018-09-18T08:04:01.245Z,23.6
2018-09-18T08:09:01.313Z,22.9
2018-09-18T08:14:01.226Z,22.6
2018-09-18T08:19:01.750Z,22.8
2018-09-18T08:24:01.230Z,22.2
2018-09-18T08:29:01.231Z,21.8
2018-09-18T08:34:01.239Z,21.8
2018-09-18T08:39:01.249Z,21.1
2018-09-18T08:44:01.241Z,20.6
2018-09-18T08:49:01.367Z,20.2
2018-09-18T08:54:01.330Z,20.6
2018-09-18T09:04:01.309Z,20.6
2018-09-18T09:09:01.510Z,20.1
2018-09-18T09:14:01.313Z,19.8
2018-09-18T09:19:01.327Z,19.3
2018-09-18T09:24:01.339Z,19.0
2018-09-18T09:29:01.304Z,18.8
2018-09-18T09:34:01.314Z,18.4
2018-09-18T09:39:01.240Z,18.4
2018-09-18T09:44:01.226Z,18.1
2018-09-18T09:54:01.233Z,17.8
2018-09-18T10:09:01.238Z,17.6
2018-09-18T10:14:01.240Z,17.0
2018-09-18T10:19:01.307Z,16.7
2018-09-18T10:24:01.258Z,17.0
2018-09-18T10:29:01.313Z,16.6
2018-09-18T10:34:01.295Z,16.6
2018-09-18T10:39:01.233Z,16.8
2018-09-18T10:44:01.307Z,17.0
2018-09-18T10:49:01.501Z,16.8
2018-09-18T10:54:01.241Z,16.8
2018-09-18T10:59:01.226Z,16.9
2018-09-18T11:04:06.234Z,16.7
2018-09-18T11:09:06.299Z,16.7
2018-09-18T11:14:01.541Z,16.4
2018-09-18T11:19:01.530Z,16.5
2018-09-18T11:24:01.356Z,15.8
2018-09-18T11:29:01.385Z,15.3
2018-09-18T11:34:01.368Z,15.0
2018-09-18T11:39:01.531Z,14.7
2018-09-18T11:44:01.281Z,14.4
2018-09-18T11:49:01.277Z,14.8
2018-09-18T11:54:01.271Z,15.1
2018-09-18T12:04:01.385Z,15.0
2018-09-18T12:09:01.464Z,14.9
2018-09-18T12:14:01.247Z,14.4
2018-09-18T12:20:01.685Z,14.2
2018-09-18T12:25:01.237Z,14.0
2018-09-18T12:30:01.302Z,14.0
2018-09-18T12:35:01.232Z,14.1
2018-09-18T12:40:01.244Z,14.4
2018-09-18T12:45:01.310Z,14.3
2018-09-18T12:50:02.020Z,14.4
2018-09-18T12:55:01.235Z,14.6
2018-09-18T13:00:01.437Z,14.2
2018-09-18T13:05:01.236Z,14.2
2018-09-18T13:10:01.531Z,14.2
2018-09-18T13:15:01.299Z,14.0
2018-09-18T13:30:06.277Z,13.4
2018-09-18T13:35:01.273Z,13.0
2018-09-18T13:40:01.236Z,13.0
2018-09-18T13:45:06.495Z,12.1
2018-09-18T13:50:01.268Z,12.6
2018-09-18T13:55:01.279Z,12.4
2018-09-18T14:00:01.438Z,12.4
2018-09-18T14:05:01.292Z,12.2
2018-09-18T14:10:01.292Z,12.5
2018-09-18T14:15:06.728Z,12.0
2018-09-18T14:25:01.303Z,12.8
2018-09-18T14:30:01.242Z,13.0
2018-09-18T14:35:01.236Z,12.8
2018-09-18T14:40:01.368Z,12.8
